Sacaton, Arizona
Current Conditions -  °F | °C
As of 12:15 AM on Monday 24 Nov 2014 (Local Time) from KCGZ Reporting Station
Clear Clear  
Wind Chill: 45°   Ceiling: Unl
Heat Index: 45°   Visibility: 10mi
Dew Point:   Wind: 0mph
Humidity: 21%   Direction: NA
Pressure: 30.15"   Gusts: NA
Location:  33.08°N, 111.75°W
Report Text: KCGZ 240715Z AUTO 00000KT 10SM CLR 07/M14 A3015 RMK AO1
Loading
Personal Weather Stations






























Interactive Weather Map New forecast layout! Learn more

10-Day Weather Forecast

Advertisements
Track Severe Weather on mobile